createdAt,value
2017-06-13T00:00:47.369Z,0
2017-06-13T00:01:56.731Z,0
2017-06-13T00:03:05.617Z,0
2017-06-13T00:04:14.509Z,0
2017-06-13T00:05:23.405Z,0
2017-06-13T00:06:32.618Z,0
2017-06-13T00:07:41.609Z,0
2017-06-13T00:08:50.493Z,0
2017-06-13T00:09:59.381Z,0
2017-06-13T00:11:08.588Z,0
2017-06-13T00:12:17.473Z,0
2017-06-13T00:13:26.684Z,0
2017-06-13T00:14:36.226Z,0
2017-06-13T00:15:45.440Z,0
2017-06-13T00:16:54.650Z,0
2017-06-13T00:18:03.863Z,0
2017-06-13T00:19:12.900Z,0
2017-06-13T00:20:22.110Z,0
2017-06-13T00:21:31.000Z,0
2017-06-13T00:22:39.890Z,0
2017-06-13T00:23:48.779Z,0
2017-06-13T00:24:57.768Z,0
2017-06-13T00:26:06.659Z,0
2017-06-13T00:27:15.874Z,0
2017-06-13T00:28:24.766Z,0
2017-06-13T00:29:33.993Z,0
2017-06-13T00:30:42.881Z,0
2017-06-13T00:31:51.769Z,0
2017-06-13T00:33:00.656Z,0
2017-06-13T00:34:09.545Z,0
2017-06-13T00:35:18.437Z,0
2017-06-13T00:36:27.476Z,0
2017-06-13T00:37:36.364Z,0
2017-06-13T00:38:45.580Z,0
2017-06-13T00:39:54.794Z,0
2017-06-13T00:41:03.677Z,0
2017-06-13T00:42:12.887Z,0
2017-06-13T00:43:21.802Z,0
2017-06-13T00:44:31.013Z,0
2017-06-13T00:45:39.897Z,0
2017-06-13T00:46:48.789Z,0
2017-06-13T00:47:57.677Z,0
2017-06-13T00:49:06.887Z,0
2017-06-13T00:50:15.776Z,0
2017-06-13T00:51:24.660Z,0
2017-06-13T00:52:33.545Z,0
2017-06-13T00:53:42.908Z,0
2017-06-13T00:54:52.124Z,0
2017-06-13T00:56:01.338Z,0
2017-06-13T00:57:10.230Z,0
2017-06-13T00:58:19.444Z,0
2017-06-13T00:59:28.632Z,0
2017-06-13T01:00:37.843Z,0
2017-06-13T01:01:46.733Z,0
2017-06-13T01:02:55.625Z,0
2017-06-13T01:04:04.513Z,0
2017-06-13T01:05:13.701Z,0
2017-06-13T01:06:22.908Z,0
2017-06-13T01:07:31.793Z,0
2017-06-13T01:08:40.681Z,0
2017-06-13T01:09:49.893Z,0
2017-06-13T01:10:58.780Z,0
2017-06-13T01:12:07.996Z,0
2017-06-13T01:13:17.201Z,0
2017-06-13T01:14:26.092Z,0
2017-06-13T01:15:34.982Z,0
2017-06-13T01:16:43.969Z,0
2017-06-13T01:17:52.858Z,0
2017-06-13T01:19:02.071Z,0
2017-06-13T01:20:11.290Z,0
2017-06-13T01:21:20.825Z,0
2017-06-13T01:22:30.569Z,0
2017-06-13T01:23:39.782Z,0
2017-06-13T01:24:48.670Z,0
2017-06-13T01:25:57.560Z,0
2017-06-13T01:27:06.445Z,0
2017-06-13T01:28:15.512Z,0
2017-06-13T01:29:24.730Z,0
2017-06-13T01:30:33.616Z,0
2017-06-13T01:31:42.510Z,0
2017-06-13T01:32:51.726Z,0
2017-06-13T01:34:00.913Z,0
2017-06-13T01:35:09.800Z,0
2017-06-13T01:36:18.684Z,0
2017-06-13T01:37:28.224Z,0
2017-06-13T01:38:37.109Z,0
2017-06-13T01:39:46.147Z,0
2017-06-13T01:40:55.036Z,0
2017-06-13T01:42:04.576Z,0
2017-06-13T01:43:13.468Z,0
2017-06-13T01:44:22.352Z,0
2017-06-13T01:45:31.713Z,0
2017-06-13T01:46:40.601Z,0
2017-06-13T01:47:49.493Z,0
2017-06-13T01:48:59.032Z,0
2017-06-13T01:50:07.920Z,0
2017-06-13T01:51:16.909Z,0
2017-06-13T01:52:25.798Z,0
2017-06-13T01:53:34.689Z,0
2017-06-13T01:54:44.225Z,0
2017-06-13T01:55:53.435Z,0
2017-06-13T01:57:02.700Z,0
2017-06-13T01:58:11.594Z,0
2017-06-13T01:59:20.483Z,0
2017-06-13T02:00:29.703Z,0
2017-06-13T02:01:38.911Z,0
2017-06-13T02:02:48.749Z,0
2017-06-13T02:03:57.637Z,0
2017-06-13T02:05:06.848Z,0
2017-06-13T02:06:16.385Z,0
2017-06-13T02:07:25.272Z,0
2017-06-13T02:08:34.586Z,0
2017-06-13T02:09:43.476Z,0
2017-06-13T02:10:52.689Z,0
2017-06-13T02:12:02.228Z,0
2017-06-13T02:13:11.112Z,0
2017-06-13T02:14:20.151Z,0
2017-06-13T02:15:29.360Z,0
2017-06-13T02:16:38.248Z,0
2017-06-13T02:17:47.145Z,0
2017-06-13T02:18:56.034Z,0
2017-06-13T02:20:05.072Z,0
2017-06-13T02:21:14.285Z,0
2017-06-13T02:22:23.170Z,0
2017-06-13T02:23:32.388Z,0
2017-06-13T02:24:41.287Z,0
2017-06-13T02:25:50.551Z,0
2017-06-13T02:26:59.438Z,0
2017-06-13T02:28:08.325Z,0
2017-06-13T02:29:17.213Z,0
2017-06-13T02:30:26.102Z,0
2017-06-13T02:31:35.139Z,0
2017-06-13T02:32:44.023Z,0
2017-06-13T02:33:52.912Z,0
2017-06-13T02:35:01.797Z,0
2017-06-13T02:36:11.008Z,0
2017-06-13T02:37:20.151Z,0
2017-06-13T02:38:29.036Z,0
2017-06-13T02:39:37.924Z,0
2017-06-13T02:40:47.460Z,0
2017-06-13T02:41:56.343Z,0
2017-06-13T02:43:05.606Z,0
2017-06-13T02:44:14.493Z,0
2017-06-13T02:45:23.426Z,0
2017-06-13T02:46:32.315Z,0
2017-06-13T02:47:41.254Z,0
2017-06-13T02:48:50.839Z,0
2017-06-13T02:50:00.051Z,0
2017-06-13T02:51:09.265Z,0
2017-06-13T02:52:18.803Z,5
2017-06-13T02:53:27.690Z,5
2017-06-13T02:54:37.327Z,5
2017-06-13T02:55:46.218Z,5
2017-06-13T02:56:55.105Z,5
2017-06-13T02:58:03.997Z,5
2017-06-13T02:59:12.884Z,5
2017-06-13T03:00:21.775Z,10
2017-06-13T03:01:30.662Z,10
2017-06-13T03:02:39.550Z,10
2017-06-13T03:03:48.436Z,10
2017-06-13T03:04:57.331Z,10
2017-06-13T03:06:06.695Z,15
2017-06-13T03:07:15.907Z,15
2017-06-13T03:08:24.794Z,15
2017-06-13T03:09:34.024Z,15
2017-06-13T03:10:42.910Z,15
2017-06-13T03:11:52.267Z,20
2017-06-13T03:13:01.806Z,20
2017-06-13T03:14:10.694Z,20
2017-06-13T03:15:19.583Z,20
2017-06-13T03:16:28.473Z,25
2017-06-13T03:17:37.835Z,25
2017-06-13T03:18:47.048Z,25
2017-06-13T03:19:55.939Z,25
2017-06-13T03:21:05.153Z,30
2017-06-13T03:22:14.042Z,30
2017-06-13T03:23:23.082Z,30
2017-06-13T03:24:32.623Z,30
2017-06-13T03:25:41.837Z,35
2017-06-13T03:26:50.724Z,35
2017-06-13T03:27:59.929Z,35
2017-06-13T03:29:08.918Z,40
2017-06-13T03:30:17.805Z,40
2017-06-13T03:31:27.041Z,40
2017-06-13T03:32:36.252Z,45
2017-06-13T03:33:45.138Z,45
2017-06-13T03:34:54.503Z,45
2017-06-13T03:36:03.711Z,50
2017-06-13T03:37:12.595Z,50
2017-06-13T03:38:21.803Z,50
2017-06-13T03:39:31.024Z,55
2017-06-13T03:40:40.233Z,55
2017-06-13T03:41:49.772Z,55
2017-06-13T03:42:59.314Z,55
2017-06-13T03:44:08.528Z,60
2017-06-13T03:45:17.417Z,60
2017-06-13T03:46:26.630Z,60
2017-06-13T03:47:35.846Z,60
2017-06-13T03:48:44.733Z,65
2017-06-13T03:49:53.941Z,65
2017-06-13T03:51:03.148Z,65
2017-06-13T03:52:12.033Z,70
2017-06-13T03:53:20.917Z,70
2017-06-13T03:54:29.800Z,70
2017-06-13T03:55:38.685Z,75
2017-06-13T03:56:47.573Z,75
2017-06-13T03:57:56.938Z,75
2017-06-13T03:59:05.823Z,75
2017-06-13T04:00:15.036Z,80
2017-06-13T04:01:24.246Z,80
2017-06-13T04:02:33.134Z,80
2017-06-13T04:03:42.121Z,80
2017-06-13T04:04:51.004Z,80
2017-06-13T04:05:59.893Z,80
2017-06-13T04:07:09.432Z,80
2017-06-13T04:08:18.329Z,85
2017-06-13T04:09:27.319Z,85
2017-06-13T04:10:36.530Z,85
2017-06-13T04:11:45.418Z,90
2017-06-13T04:12:54.313Z,90
2017-06-13T04:14:03.527Z,90
2017-06-13T04:15:12.715Z,95
2017-06-13T04:16:21.605Z,95
2017-06-13T04:17:30.821Z,95
2017-06-13T04:18:40.034Z,100
2017-06-13T04:19:48.922Z,100
2017-06-13T04:20:57.808Z,100
2017-06-13T04:22:06.701Z,100
2017-06-13T04:23:15.584Z,100
2017-06-13T04:24:24.466Z,100
2017-06-13T04:25:33.351Z,105
2017-06-13T04:26:42.340Z,100
2017-06-13T04:27:51.227Z,105
2017-06-13T04:29:00.113Z,105
2017-06-13T04:30:09.649Z,105
2017-06-13T04:31:18.862Z,100
2017-06-13T04:32:27.748Z,100
2017-06-13T04:33:36.958Z,100
2017-06-13T04:34:45.850Z,105
2017-06-13T04:35:55.062Z,105
2017-06-13T04:37:04.595Z,105
2017-06-13T04:38:13.483Z,100
2017-06-13T04:39:22.374Z,100
2017-06-13T04:40:31.591Z,105
2017-06-13T04:41:40.476Z,110
2017-06-13T04:42:49.364Z,110
2017-06-13T04:43:58.399Z,110
2017-06-13T04:45:07.288Z,115
2017-06-13T04:46:16.177Z,115
2017-06-13T04:47:25.390Z,115
2017-06-13T04:48:34.274Z,120
2017-06-13T04:49:43.636Z,120
2017-06-13T04:50:53.170Z,120
2017-06-13T04:52:02.384Z,120
2017-06-13T04:53:11.919Z,120
2017-06-13T04:54:20.839Z,120
2017-06-13T04:55:29.721Z,125
2017-06-13T04:56:38.612Z,125
2017-06-13T04:57:47.829Z,125
2017-06-13T04:58:56.716Z,125
2017-06-13T05:00:05.604Z,125
2017-06-13T05:01:15.298Z,130
2017-06-13T05:02:24.186Z,130
2017-06-13T05:03:33.077Z,130
2017-06-13T05:04:42.292Z,135
2017-06-13T05:05:51.177Z,135
2017-06-13T05:07:00.366Z,135
2017-06-13T05:08:09.575Z,140
2017-06-13T05:09:18.466Z,145
2017-06-13T05:10:27.678Z,145
2017-06-13T05:11:36.565Z,150
2017-06-13T05:12:45.554Z,155
2017-06-13T05:13:54.765Z,160
2017-06-13T05:15:03.983Z,170
2017-06-13T05:16:13.196Z,175
2017-06-13T05:17:22.083Z,185
2017-06-13T05:18:31.597Z,195
2017-06-13T05:19:40.809Z,220
2017-06-13T05:20:50.347Z,215
2017-06-13T05:21:59.884Z,235
2017-06-13T05:23:08.773Z,265
2017-06-13T05:24:17.813Z,295
2017-06-13T05:25:26.700Z,260
2017-06-13T05:26:35.591Z,250
2017-06-13T05:27:44.478Z,285
2017-06-13T05:28:53.369Z,275
2017-06-13T05:30:02.633Z,275
2017-06-13T05:31:11.843Z,270
2017-06-13T05:32:21.053Z,270
2017-06-13T05:33:29.944Z,290
2017-06-13T05:34:38.828Z,315
2017-06-13T05:35:47.766Z,285
2017-06-13T05:36:57.304Z,275
2017-06-13T05:38:06.521Z,270
2017-06-13T05:39:15.733Z,255
2017-06-13T05:40:24.626Z,260
2017-06-13T05:41:33.664Z,270
2017-06-13T05:42:42.551Z,260
2017-06-13T05:43:51.771Z,260
2017-06-13T05:45:00.661Z,260
2017-06-13T05:46:09.553Z,260
2017-06-13T05:47:18.594Z,260
2017-06-13T05:48:27.484Z,270
2017-06-13T05:49:36.696Z,260
2017-06-13T05:50:45.585Z,245
2017-06-13T05:51:54.472Z,265
2017-06-13T05:53:03.841Z,265
2017-06-13T05:54:13.383Z,290
2017-06-13T05:55:22.271Z,285
2017-06-13T05:56:31.167Z,285
2017-06-13T05:57:40.383Z,285
2017-06-13T05:58:49.644Z,295
2017-06-13T05:59:58.872Z,295
2017-06-13T06:01:08.412Z,285
2017-06-13T06:02:17.303Z,290
2017-06-13T06:03:26.517Z,295
2017-06-13T06:04:35.404Z,295
2017-06-13T06:05:44.289Z,295
2017-06-13T06:06:53.825Z,285
2017-06-13T06:08:03.364Z,275
2017-06-13T06:09:12.256Z,275
2017-06-13T06:10:21.480Z,285
2017-06-13T06:11:30.369Z,280
2017-06-13T06:12:39.512Z,275
2017-06-13T06:13:48.402Z,285
2017-06-13T06:14:57.292Z,305
2017-06-13T06:16:06.180Z,300
2017-06-13T06:17:15.066Z,275
2017-06-13T06:18:23.954Z,265
2017-06-13T06:19:32.846Z,280
2017-06-13T06:20:42.534Z,290
2017-06-13T06:21:51.425Z,320
2017-06-13T06:23:00.642Z,335
2017-06-13T06:24:09.865Z,335
2017-06-13T06:25:18.754Z,340
2017-06-13T06:26:27.894Z,335
2017-06-13T06:27:36.786Z,340
2017-06-13T06:28:45.674Z,320
2017-06-13T06:29:54.908Z,335
2017-06-13T06:31:03.800Z,325
2017-06-13T06:32:12.791Z,330
2017-06-13T06:33:22.009Z,305
2017-06-13T06:34:31.547Z,320
2017-06-13T06:35:40.435Z,325
2017-06-13T06:36:49.649Z,325
2017-06-13T06:37:58.961Z,320
2017-06-13T06:39:07.888Z,310
2017-06-13T06:40:16.781Z,315
2017-06-13T06:41:25.670Z,340
2017-06-13T06:42:34.590Z,335
2017-06-13T06:43:43.686Z,335
2017-06-13T06:44:52.574Z,330
2017-06-13T06:46:01.797Z,340
2017-06-13T06:47:11.340Z,355
2017-06-13T06:48:20.559Z,370
2017-06-13T06:49:29.496Z,375
2017-06-13T06:50:38.388Z,380
2017-06-13T06:51:47.274Z,375
2017-06-13T06:52:56.163Z,365
2017-06-13T06:54:05.057Z,360
2017-06-13T06:55:13.948Z,360
2017-06-13T06:56:22.841Z,360
2017-06-13T06:57:31.733Z,360
2017-06-13T06:58:40.632Z,370
2017-06-13T06:59:49.847Z,370
2017-06-13T07:00:58.988Z,365
2017-06-13T07:02:07.880Z,350
2017-06-13T07:03:17.095Z,340
2017-06-13T07:04:25.991Z,320
2017-06-13T07:05:35.533Z,320
2017-06-13T07:06:44.723Z,325
2017-06-13T07:07:53.614Z,340
2017-06-13T07:09:02.508Z,360
2017-06-13T07:10:12.050Z,365
2017-06-13T07:11:20.943Z,355
2017-06-13T07:12:30.348Z,350
2017-06-13T07:13:39.237Z,320
2017-06-13T07:14:48.135Z,285
2017-06-13T07:15:57.030Z,260
2017-06-13T07:17:05.919Z,265
2017-06-13T07:18:14.862Z,255
2017-06-13T07:19:24.400Z,275
2017-06-13T07:20:33.291Z,275
2017-06-13T07:21:42.230Z,240
2017-06-13T07:22:51.117Z,245
2017-06-13T07:24:00.106Z,255
2017-06-13T07:25:09.319Z,235
2017-06-13T07:26:18.210Z,260
2017-06-13T07:27:27.102Z,285
2017-06-13T07:28:36.322Z,305
2017-06-13T07:29:45.314Z,250
2017-06-13T07:30:54.208Z,285
2017-06-13T07:32:03.095Z,330
2017-06-13T07:33:11.990Z,310
2017-06-13T07:34:20.884Z,310
2017-06-13T07:35:29.926Z,300
2017-06-13T07:36:38.818Z,315
2017-06-13T07:37:47.705Z,315
2017-06-13T07:38:56.918Z,340
2017-06-13T07:40:05.808Z,300
2017-06-13T07:41:14.808Z,275
2017-06-13T07:42:24.023Z,275
2017-06-13T07:43:32.915Z,285
2017-06-13T07:44:41.807Z,350
2017-06-13T07:45:51.027Z,275
2017-06-13T07:47:00.392Z,295
2017-06-13T07:48:09.612Z,340
2017-06-13T07:49:18.512Z,385
2017-06-13T07:50:27.403Z,410
2017-06-13T07:51:36.290Z,390
2017-06-13T07:52:45.659Z,355
2017-06-13T07:53:54.876Z,410
2017-06-13T07:55:03.766Z,470
2017-06-13T07:56:12.983Z,470
2017-06-13T07:57:21.874Z,485
2017-06-13T07:58:31.663Z,565
2017-06-13T07:59:40.882Z,500
2017-06-13T08:00:49.774Z,445
2017-06-13T08:01:58.665Z,495
2017-06-13T08:03:07.558Z,535
2017-06-13T08:04:16.448Z,545
2017-06-13T08:05:25.340Z,530
2017-06-13T08:06:34.235Z,490
2017-06-13T08:07:43.450Z,445
2017-06-13T08:08:52.663Z,435
2017-06-13T08:10:02.406Z,405
2017-06-13T08:11:11.625Z,405
2017-06-13T08:12:20.514Z,375
2017-06-13T08:13:29.409Z,350
2017-06-13T08:14:38.300Z,380
2017-06-13T08:15:47.517Z,435
2017-06-13T08:16:57.074Z,470
2017-06-13T08:18:06.292Z,485
2017-06-13T08:19:15.191Z,445
2017-06-13T08:20:24.408Z,430
2017-06-13T08:21:33.698Z,440
2017-06-13T08:22:42.587Z,460
2017-06-13T08:23:51.482Z,485
2017-06-13T08:25:00.375Z,535
2017-06-13T08:26:09.265Z,585
2017-06-13T08:27:18.305Z,535
2017-06-13T08:28:27.202Z,550
2017-06-13T08:29:36.422Z,490
2017-06-13T08:30:45.311Z,495
2017-06-13T08:31:54.525Z,435
2017-06-13T08:33:03.575Z,405
2017-06-13T08:34:12.791Z,430
2017-06-13T08:35:21.683Z,410
2017-06-13T08:36:31.221Z,400
2017-06-13T08:37:40.115Z,360
2017-06-13T08:38:49.110Z,405
2017-06-13T08:39:58.000Z,490
2017-06-13T08:41:06.891Z,550
2017-06-13T08:42:15.785Z,555
2017-06-13T08:43:24.680Z,580
2017-06-13T08:44:34.094Z,590
2017-06-13T08:45:42.987Z,515
2017-06-13T08:46:51.882Z,545
2017-06-13T08:48:00.776Z,520
2017-06-13T08:49:09.666Z,540
2017-06-13T08:50:18.712Z,615
2017-06-13T08:51:27.608Z,705
2017-06-13T08:52:36.821Z,735
2017-06-13T08:53:45.711Z,755
2017-06-13T08:54:54.601Z,750
2017-06-13T08:56:03.745Z,780
2017-06-13T08:57:12.969Z,740
2017-06-13T08:58:22.190Z,665
2017-06-13T08:59:31.405Z,575
2017-06-13T09:00:40.302Z,520
2017-06-13T09:01:49.343Z,660
2017-06-13T09:02:58.235Z,590
2017-06-13T09:04:07.129Z,475
2017-06-13T09:05:16.021Z,435
2017-06-13T09:06:24.911Z,395
2017-06-13T09:07:33.950Z,290
2017-06-13T09:08:43.174Z,190
2017-06-13T09:09:52.733Z,130
2017-06-13T09:11:01.623Z,110
2017-06-13T09:12:10.517Z,100
2017-06-13T09:13:19.611Z,105
2017-06-13T09:14:28.502Z,115
2017-06-13T09:15:37.396Z,120
2017-06-13T09:16:46.939Z,145
2017-06-13T09:17:55.828Z,210
2017-06-13T09:19:04.819Z,310
2017-06-13T09:20:13.710Z,425
2017-06-13T09:21:22.929Z,475
2017-06-13T09:22:31.823Z,490
2017-06-13T09:23:40.713Z,490
2017-06-13T09:24:50.035Z,495
2017-06-13T09:25:58.924Z,435
2017-06-13T09:27:08.144Z,390
2017-06-13T09:28:17.035Z,435
2017-06-13T09:29:25.933Z,505
2017-06-13T09:30:35.400Z,570
2017-06-13T09:31:44.940Z,575
2017-06-13T09:32:54.160Z,595
2017-06-13T09:34:03.054Z,600
2017-06-13T09:35:12.268Z,625
2017-06-13T09:36:21.409Z,700
2017-06-13T09:37:30.300Z,660
2017-06-13T09:38:39.515Z,665
2017-06-13T09:39:48.409Z,675
2017-06-13T09:40:57.302Z,695
2017-06-13T09:42:06.521Z,725
2017-06-13T09:43:15.738Z,700
2017-06-13T09:44:24.627Z,605
2017-06-13T09:45:33.521Z,565
2017-06-13T09:46:42.412Z,560
2017-06-13T09:47:51.610Z,560
2017-06-13T09:49:00.825Z,610
2017-06-13T09:50:09.715Z,610
2017-06-13T09:51:18.935Z,630
2017-06-13T09:52:27.827Z,625
2017-06-13T09:53:36.970Z,595
2017-06-13T09:54:45.861Z,610
2017-06-13T09:55:54.749Z,620
2017-06-13T09:57:03.966Z,715
2017-06-13T09:58:12.856Z,785
2017-06-13T09:59:21.796Z,845
2017-06-13T10:00:30.704Z,810
2017-06-13T10:01:39.922Z,755
2017-06-13T10:02:49.142Z,795
2017-06-13T10:03:58.034Z,835
2017-06-13T10:05:07.081Z,875
2017-06-13T10:06:15.982Z,850
2017-06-13T10:07:24.876Z,845
2017-06-13T10:08:33.769Z,835
2017-06-13T10:09:42.986Z,780
2017-06-13T10:10:52.136Z,770
2017-06-13T10:12:01.031Z,740
2017-06-13T10:13:09.927Z,780
2017-06-13T10:14:18.823Z,890
2017-06-13T10:15:27.715Z,915
2017-06-13T10:16:36.762Z,930
2017-06-13T10:17:45.978Z,990
2017-06-13T10:18:54.879Z,995
2017-06-13T10:20:04.095Z,925
2017-06-13T10:21:13.636Z,865
2017-06-13T10:22:22.579Z,920
2017-06-13T10:23:31.798Z,965
2017-06-13T10:24:41.340Z,995
2017-06-13T10:25:50.878Z,940
2017-06-13T10:27:00.098Z,850
2017-06-13T10:28:09.035Z,770
2017-06-13T10:29:17.926Z,760
2017-06-13T10:30:26.820Z,770
2017-06-13T10:31:36.040Z,780
2017-06-13T10:32:44.935Z,840
2017-06-13T10:33:53.978Z,850
2017-06-13T10:35:02.871Z,830
2017-06-13T10:36:11.769Z,810
2017-06-13T10:37:20.672Z,775
2017-06-13T10:38:29.570Z,755
2017-06-13T10:39:38.614Z,855
2017-06-13T10:40:47.507Z,820
2017-06-13T10:41:57.052Z,720
2017-06-13T10:43:06.596Z,625
2017-06-13T10:44:15.488Z,665
2017-06-13T10:45:24.481Z,600
2017-06-13T10:46:33.375Z,760
2017-06-13T10:47:42.591Z,940
2017-06-13T10:48:51.488Z,980
2017-06-13T10:50:00.379Z,1025
2017-06-13T10:51:09.372Z,1005
2017-06-13T10:52:18.264Z,940
2017-06-13T10:53:27.154Z,915
2017-06-13T10:54:36.050Z,965
2017-06-13T10:55:45.588Z,940
2017-06-13T10:56:54.482Z,895
2017-06-13T10:58:03.378Z,865
2017-06-13T10:59:12.595Z,870
2017-06-13T11:00:21.488Z,860
2017-06-13T11:01:31.035Z,890
2017-06-13T11:02:40.177Z,910
2017-06-13T11:03:49.073Z,930
2017-06-13T11:04:58.295Z,860
2017-06-13T11:06:07.235Z,755
2017-06-13T11:07:16.127Z,710
2017-06-13T11:08:25.174Z,710
2017-06-13T11:09:34.394Z,735
2017-06-13T11:10:44.263Z,730
2017-06-13T11:11:53.153Z,740
2017-06-13T11:13:02.046Z,690
2017-06-13T11:14:10.995Z,740
2017-06-13T11:15:19.887Z,815
2017-06-13T11:16:28.777Z,850
2017-06-13T11:17:37.724Z,840
2017-06-13T11:18:46.621Z,825
2017-06-13T11:19:55.612Z,880
2017-06-13T11:21:04.508Z,950
2017-06-13T11:22:13.405Z,985
2017-06-13T11:23:22.299Z,955
2017-06-13T11:24:31.190Z,970
2017-06-13T11:25:40.397Z,1040
2017-06-13T11:26:49.616Z,1140
2017-06-13T11:27:58.508Z,1190
2017-06-13T11:29:07.400Z,1145
2017-06-13T11:30:16.623Z,1090
2017-06-13T11:31:25.819Z,1065
2017-06-13T11:32:35.036Z,1075
2017-06-13T11:33:43.933Z,1130
2017-06-13T11:34:53.153Z,1025
2017-06-13T11:36:02.378Z,785
2017-06-13T11:37:11.424Z,875
2017-06-13T11:38:20.643Z,990
2017-06-13T11:39:29.866Z,1070
2017-06-13T11:40:38.761Z,1015
2017-06-13T11:41:47.681Z,860
2017-06-13T11:42:56.935Z,800
2017-06-13T11:44:05.828Z,865
2017-06-13T11:45:14.728Z,1015
2017-06-13T11:46:23.948Z,1185
2017-06-13T11:47:32.865Z,1280
2017-06-13T11:48:42.113Z,1055
2017-06-13T11:49:51.010Z,1105
2017-06-13T11:50:59.902Z,935
2017-06-13T11:52:08.799Z,1005
2017-06-13T11:53:18.025Z,795
2017-06-13T11:54:27.619Z,885
2017-06-13T11:55:36.514Z,855
2017-06-13T11:56:45.408Z,835
2017-06-13T11:57:54.309Z,890
2017-06-13T11:59:03.205Z,935
2017-06-13T12:00:12.423Z,1105
2017-06-13T12:01:21.319Z,2315
2017-06-13T12:02:30.217Z,705
2017-06-13T12:03:39.760Z,890
2017-06-13T12:04:48.978Z,680
2017-06-13T12:05:58.298Z,635
2017-06-13T12:07:07.517Z,570
2017-06-13T12:08:16.413Z,630
2017-06-13T12:09:25.632Z,610
2017-06-13T12:10:34.855Z,470
2017-06-13T12:11:44.126Z,625
2017-06-13T12:12:53.021Z,650
2017-06-13T12:14:01.920Z,530
2017-06-13T12:15:11.148Z,350
2017-06-13T12:16:20.367Z,220
2017-06-13T12:17:29.959Z,215
2017-06-13T12:18:39.179Z,275
2017-06-13T12:19:48.532Z,345
2017-06-13T12:20:57.433Z,310
2017-06-13T12:22:06.668Z,260
2017-06-13T12:23:15.864Z,230
2017-06-13T12:24:24.793Z,230
2017-06-13T12:25:33.688Z,270
2017-06-13T12:26:42.610Z,320
2017-06-13T12:27:51.835Z,330
2017-06-13T12:29:01.101Z,395
2017-06-13T12:30:09.994Z,515
2017-06-13T12:31:18.910Z,645
2017-06-13T12:32:27.814Z,765
2017-06-13T12:33:36.711Z,990
2017-06-13T12:34:46.073Z,750
2017-06-13T12:35:55.001Z,710
2017-06-13T12:37:04.251Z,725
2017-06-13T12:38:13.166Z,705
2017-06-13T12:39:22.383Z,685
2017-06-13T12:40:31.475Z,695
2017-06-13T12:41:40.389Z,750
2017-06-13T12:42:49.617Z,690
2017-06-13T12:43:58.521Z,595
2017-06-13T12:45:07.770Z,495
2017-06-13T12:46:16.767Z,460
2017-06-13T12:47:25.661Z,405
2017-06-13T12:48:34.556Z,435
2017-06-13T12:49:44.432Z,470
2017-06-13T12:50:53.328Z,485
2017-06-13T12:52:02.323Z,485
2017-06-13T12:53:11.240Z,500
2017-06-13T12:54:20.457Z,560
2017-06-13T12:55:29.366Z,690
2017-06-13T12:56:38.694Z,840
2017-06-13T12:57:47.744Z,975
2017-06-13T12:58:56.638Z,1115
2017-06-13T13:00:05.870Z,1330
2017-06-13T13:01:14.768Z,1380
2017-06-13T13:02:23.662Z,1045
2017-06-13T13:03:32.691Z,1580
2017-06-13T13:04:42.238Z,2625
2017-06-13T13:05:51.461Z,4045
2017-06-13T13:07:00.357Z,4250
2017-06-13T13:08:09.249Z,4365
2017-06-13T13:09:18.446Z,2105
2017-06-13T13:10:27.668Z,4195
2017-06-13T13:11:36.891Z,3620
2017-06-13T13:12:45.789Z,970
2017-06-13T13:13:55.061Z,485
2017-06-13T13:15:04.437Z,505
2017-06-13T13:16:13.348Z,680
2017-06-13T13:17:22.265Z,845
2017-06-13T13:18:31.380Z,1245
2017-06-13T13:19:40.383Z,1530
2017-06-13T13:20:49.434Z,1265
2017-06-13T13:21:58.341Z,1565
2017-06-13T13:23:07.261Z,1715
2017-06-13T13:24:16.164Z,3580
2017-06-13T13:25:25.064Z,865
2017-06-13T13:26:34.114Z,730
2017-06-13T13:27:43.013Z,950
2017-06-13T13:28:52.238Z,1360
2017-06-13T13:30:01.140Z,1085
2017-06-13T13:31:10.041Z,1170
2017-06-13T13:32:19.414Z,2305
2017-06-13T13:33:28.308Z,1300
2017-06-13T13:34:37.530Z,1380
2017-06-13T13:35:46.425Z,2500
2017-06-13T13:36:55.649Z,2160
2017-06-13T13:38:05.020Z,1950
2017-06-13T13:39:13.921Z,2040
2017-06-13T13:40:23.145Z,1440
2017-06-13T13:41:32.373Z,1180
2017-06-13T13:42:41.271Z,1190
2017-06-13T13:43:50.170Z,2020
2017-06-13T13:44:59.722Z,1275
2017-06-13T13:46:08.626Z,895
2017-06-13T13:47:17.530Z,1385
2017-06-13T13:48:26.433Z,2380
2017-06-13T13:49:35.334Z,1010
2017-06-13T13:50:44.233Z,900
2017-06-13T13:51:53.456Z,775
2017-06-13T13:53:02.683Z,790
2017-06-13T13:54:11.906Z,835
2017-06-13T13:55:20.810Z,870
2017-06-13T13:56:29.723Z,1035
2017-06-13T13:57:38.671Z,950
2017-06-13T13:58:47.569Z,850
2017-06-13T13:59:56.465Z,770
2017-06-13T14:01:05.391Z,790
2017-06-13T14:02:14.296Z,865
2017-06-13T14:03:23.520Z,930
2017-06-13T14:04:32.421Z,1070
2017-06-13T14:05:41.353Z,1225
2017-06-13T14:06:50.605Z,1210
2017-06-13T14:07:59.505Z,1145
2017-06-13T14:09:17.479Z,1155
2017-06-13T14:10:26.449Z,1250
2017-06-13T14:11:35.497Z,1470
2017-06-13T14:12:44.416Z,1405
2017-06-13T14:13:53.970Z,1270
2017-06-13T14:15:03.066Z,1540
2017-06-13T14:16:11.962Z,1675
2017-06-13T14:17:20.858Z,1695
2017-06-13T14:18:29.764Z,1255
2017-06-13T14:19:38.988Z,1180
2017-06-13T14:20:47.892Z,1345
2017-06-13T14:21:56.804Z,2155
2017-06-13T14:23:06.070Z,1655
2017-06-13T14:24:14.966Z,1740
2017-06-13T14:25:23.873Z,2440
2017-06-13T14:26:33.247Z,2735
2017-06-13T14:27:42.475Z,3435
2017-06-13T14:28:52.031Z,2580
2017-06-13T14:30:01.258Z,2175
2017-06-13T14:31:10.495Z,2850
2017-06-13T14:32:19.972Z,2070
2017-06-13T14:33:28.875Z,4010
2017-06-13T14:34:38.108Z,2490
2017-06-13T14:35:47.661Z,2740
2017-06-13T14:36:56.565Z,1365
2017-06-13T14:38:05.717Z,1380
2017-06-13T14:39:14.970Z,1480
2017-06-13T14:40:23.876Z,1325
2017-06-13T14:41:32.785Z,1140
2017-06-13T14:42:41.690Z,1120
2017-06-13T14:43:50.743Z,1150
2017-06-13T14:44:59.645Z,1270
2017-06-13T14:46:08.547Z,2110
2017-06-13T14:47:17.447Z,3660
2017-06-13T14:48:26.677Z,4395
2017-06-13T14:49:35.585Z,2580
2017-06-13T14:50:45.139Z,2125
2017-06-13T14:51:54.369Z,2130
2017-06-13T14:53:03.270Z,2225
2017-06-13T14:54:12.532Z,2840
2017-06-13T14:55:21.863Z,3190
2017-06-13T14:56:30.769Z,3475
2017-06-13T14:57:39.685Z,3470
2017-06-13T14:58:48.923Z,3445
2017-06-13T14:59:57.829Z,3290
2017-06-13T15:01:06.998Z,3280
2017-06-13T15:02:15.913Z,3305
2017-06-13T15:03:24.820Z,3325
2017-06-13T15:04:33.725Z,3505
2017-06-13T15:05:42.956Z,3380
2017-06-13T15:06:52.164Z,3115
2017-06-13T15:08:01.076Z,3185
2017-06-13T15:09:09.986Z,3290
2017-06-13T15:10:18.890Z,3235
2017-06-13T15:11:27.798Z,3205
2017-06-13T15:12:37.181Z,3315
2017-06-13T15:13:46.091Z,3575
2017-06-13T15:14:55.330Z,3380
2017-06-13T15:16:04.560Z,3190
2017-06-13T15:17:13.474Z,655
2017-06-13T15:18:22.532Z,605
2017-06-13T15:19:31.439Z,670
2017-06-13T15:20:40.355Z,740
2017-06-13T15:21:49.263Z,2860
2017-06-13T15:22:58.491Z,3060
2017-06-13T15:24:07.748Z,3030
2017-06-13T15:25:16.657Z,1700
2017-06-13T15:26:25.574Z,520
2017-06-13T15:27:34.480Z,1335
2017-06-13T15:28:43.400Z,495
2017-06-13T15:29:53.211Z,460
2017-06-13T15:31:02.117Z,525
2017-06-13T15:32:11.040Z,3125
2017-06-13T15:33:19.943Z,2850
2017-06-13T15:34:29.177Z,980
2017-06-13T15:35:38.230Z,2980
2017-06-13T15:36:47.145Z,725
2017-06-13T15:37:56.816Z,2595
2017-06-13T15:39:05.727Z,2850
2017-06-13T15:40:14.643Z,845
2017-06-13T15:41:23.702Z,2155
2017-06-13T15:42:32.615Z,1125
2017-06-13T15:43:42.174Z,640
2017-06-13T15:44:51.728Z,515
2017-06-13T15:46:01.384Z,600
2017-06-13T15:47:10.390Z,950
2017-06-13T15:48:19.294Z,1900
2017-06-13T15:49:28.528Z,2140
2017-06-13T15:50:37.772Z,965
2017-06-13T15:51:46.998Z,1055
2017-06-13T15:52:56.149Z,935
2017-06-13T15:54:05.054Z,3080
2017-06-13T15:55:13.956Z,2645
2017-06-13T15:56:23.215Z,1295
2017-06-13T15:57:32.116Z,1290
2017-06-13T15:58:41.023Z,2900
2017-06-13T15:59:49.927Z,850
2017-06-13T16:00:58.939Z,815